Terminal Aerodrome Forecast
Issued by NWS

Home | Current Version | Previous Version | Text Only | Print | Product List | Glossary On
Versions: 1 2 3 4 5 6 7 8 9 10 11 12 13
000
FTUS45 KABQ 162329
TAFSAF
TAF
KSAF 162329Z 1700/1724 25011G17KT P6SM FEW100
     FM170200 29006KT P6SM FEW100
     FM170700 33006KT P6SM SKC
      TEMPO 1715/1718 13007KT
     FM171900 21007KT P6SM SKC=

USA.gov is the U.S. government's official web portal to all federal, state and local government web resources and services.